Conover, WI (54519)

5:16 PM CDT on July 27, 2016 (GMT -0500)
Spirit Lake | | Change Station

Elev 1657 ft 45.96 °N, 89.20 °W | Updated 4 minutes ago

Light Rain
Light Rain
70.3 °F
Feels Like 70.3 °F
N
4.7
Wind Variable Wind from NE

Today
High -- | Low -- °F
--% Chance of Precip.
Yesterday
High -- | Low -- °F
Precip. -- in
Pressure 30.03 in
Visibility 10.0 miles
Clouds Scattered Clouds 600 ft
Scattered Clouds 1200 ft
Mostly Cloudy 9000 ft
Dew Point 68 °F
Humidity 91%
Rainfall 1.51 in
Snow Depth Not available.
5:34 AM 8:32 PM
Last Quarter, 39% visible
METAR KLNL 272155Z AUTO 03004KT 10SM -RA SCT006 SCT012 BKN090 21/20 A3003 RMK AO2 P0001 T02100196
Pressure 30.03 in
Visibility 10.0 miles
Clouds Scattered Clouds 600 ft
Scattered Clouds 1200 ft
Mostly Cloudy 9000 ft
Dew Point 68 °F
Humidity 91%
Rainfall 1.51 in
Snow Depth Not available.
5:34 AM 8:32 PM
Last Quarter, 39% visible
METAR KLNL 272155Z AUTO 03004KT 10SM -RA SCT006 SCT012 BKN090 21/20 A3003 RMK AO2 P0001 T02100196

10-Day Weather Forecast

Almanac

Astronomy

Jul. 27, 2016 Rise Set
Actual Time
Civil Twilight
Nautical Twilight
Astronomical Twilight
Moon
Length of Visible Light
Length of Day
Tomorrow will be .
, % of the Moon is Illuminated

Today's Extremes

State Highs State Lows

Community

WunderPhotos

Upload Photos

1,927,946 photos uploaded!

WunderBlog® & News

Nearby

Air Quality

  Air Quality AQ Index Pollutant
Not available.

Snow Depth

Station Depth Elevation

Earthquake Activity

City Distance Mag. Time & Date
Minimum magnitude displayed is 2.5.

Coastal Water Temperatures

Place Temperature

Stations

Nearby Weather Stations

Station Location Temp. Windchill Dew Point Humidity Wind Precip. Elev Updated Type
                   

Watches & Warnings

There are currently no watches in effect.